createdAt,value
2018-07-10T00:00:54.502Z,17.95
2018-07-10T00:01:54.513Z,17.79
2018-07-10T00:02:54.457Z,17.87
2018-07-10T00:03:54.443Z,17.90
2018-07-10T00:04:54.428Z,17.92
2018-07-10T00:05:54.417Z,17.89
2018-07-10T00:06:54.405Z,17.96
2018-07-10T00:07:54.406Z,17.84
2018-07-10T00:08:54.377Z,17.84
2018-07-10T00:09:54.368Z,17.82
2018-07-10T00:10:54.350Z,17.82
2018-07-10T00:11:54.353Z,17.79
2018-07-10T00:12:54.355Z,17.82
2018-07-10T00:13:54.311Z,17.82
2018-07-10T00:14:54.304Z,17.81
2018-07-10T00:15:54.285Z,17.78
2018-07-10T00:16:54.275Z,17.77
2018-07-10T00:17:54.262Z,17.70
2018-07-10T00:18:54.258Z,17.75
2018-07-10T00:19:54.229Z,17.74
2018-07-10T00:20:54.217Z,17.64
2018-07-10T00:21:54.205Z,17.62
2018-07-10T00:22:54.197Z,17.66
2018-07-10T00:23:54.193Z,17.56
2018-07-10T00:24:54.167Z,17.58
2018-07-10T00:25:54.165Z,17.58
2018-07-10T00:26:54.138Z,17.62
2018-07-10T00:27:54.120Z,17.59
2018-07-10T00:28:54.124Z,17.64
2018-07-10T00:29:54.112Z,17.63
2018-07-10T00:30:54.079Z,17.70
2018-07-10T00:31:54.067Z,17.49
2018-07-10T00:32:54.056Z,17.52
2018-07-10T00:33:54.043Z,17.54
2018-07-10T00:34:54.047Z,17.56
2018-07-10T00:35:54.021Z,17.54
2018-07-10T00:36:54.007Z,17.51
2018-07-10T00:37:53.993Z,17.51
2018-07-10T00:38:53.980Z,17.49
2018-07-10T00:39:53.987Z,17.38
2018-07-10T00:40:53.955Z,17.46
2018-07-10T00:41:53.936Z,17.34
2018-07-10T00:42:53.924Z,17.33
2018-07-10T00:43:53.923Z,17.30
2018-07-10T00:44:53.928Z,17.19
2018-07-10T00:45:53.888Z,17.08
2018-07-10T00:46:53.871Z,17.12
2018-07-10T00:47:53.862Z,17.08
2018-07-10T00:48:53.847Z,17.07
2018-07-10T00:49:53.860Z,17.07
2018-07-10T00:50:53.830Z,17.06
2018-07-10T00:51:53.807Z,17.07
2018-07-10T00:52:53.791Z,17.03
2018-07-10T00:53:53.782Z,17.03
2018-07-10T00:54:53.765Z,16.96
2018-07-10T00:55:53.773Z,17.00
2018-07-10T00:56:53.735Z,16.96
2018-07-10T00:57:53.730Z,16.98
2018-07-10T00:58:53.717Z,16.97
2018-07-10T00:59:53.698Z,16.96
2018-07-10T01:00:53.701Z,17.00
2018-07-10T01:01:53.674Z,17.00
2018-07-10T01:02:53.666Z,16.98
2018-07-10T01:03:53.647Z,17.00
2018-07-10T01:04:53.632Z,17.12
2018-07-10T01:05:53.650Z,17.07
2018-07-10T01:06:53.629Z,17.00
2018-07-10T01:07:53.590Z,17.00
2018-07-10T01:08:53.576Z,17.12
2018-07-10T01:09:53.561Z,17.08
2018-07-10T01:10:53.549Z,17.08
2018-07-10T01:11:53.551Z,17.07
2018-07-10T01:12:53.518Z,17.12
2018-07-10T01:13:53.511Z,17.11
2018-07-10T01:14:53.494Z,17.03
2018-07-10T01:15:53.484Z,17.11
2018-07-10T01:16:53.484Z,17.00
2018-07-10T01:17:53.455Z,17.00
2018-07-10T01:18:53.452Z,16.86
2018-07-10T01:19:53.431Z,16.93
2018-07-10T01:20:53.414Z,16.85
2018-07-10T01:21:53.410Z,16.78
2018-07-10T01:22:53.405Z,16.76
2018-07-10T01:23:53.376Z,16.68
2018-07-10T01:24:53.357Z,16.70
2018-07-10T01:25:53.348Z,16.68
2018-07-10T01:26:53.352Z,16.66
2018-07-10T01:27:53.331Z,16.61
2018-07-10T01:28:53.303Z,16.57
2018-07-10T01:29:53.290Z,16.50
2018-07-10T01:30:53.274Z,16.49
2018-07-10T01:31:53.294Z,16.48
2018-07-10T01:32:53.253Z,16.46
2018-07-10T01:33:53.239Z,16.48
2018-07-10T01:34:53.217Z,16.43
2018-07-10T01:35:53.207Z,16.46
2018-07-10T01:36:53.214Z,16.48
2018-07-10T01:37:53.181Z,16.45
2018-07-10T01:38:53.169Z,16.53
2018-07-10T01:39:53.169Z,16.42
2018-07-10T01:40:53.144Z,16.39
2018-07-10T01:41:53.128Z,16.34
2018-07-10T01:42:53.128Z,16.38
2018-07-10T01:43:53.099Z,16.38
2018-07-10T01:44:53.088Z,16.35
2018-07-10T01:45:53.075Z,16.31
2018-07-10T01:46:53.061Z,16.24
2018-07-10T01:47:53.073Z,16.17
2018-07-10T01:48:53.031Z,16.15
2018-07-10T01:49:53.019Z,16.15
2018-07-10T01:50:53.003Z,16.15
2018-07-10T01:51:53.004Z,16.14
2018-07-10T01:52:52.977Z,16.07
2018-07-10T01:53:52.976Z,16.17
2018-07-10T01:54:52.943Z,16.12
2018-07-10T01:55:52.948Z,16.09
2018-07-10T01:56:52.920Z,16.05
2018-07-10T01:57:52.904Z,16.07
2018-07-10T01:58:52.907Z,16.01
2018-07-10T01:59:52.871Z,16.04
2018-07-10T02:00:52.864Z,16.07
2018-07-10T02:01:52.859Z,16.07
2018-07-10T02:02:52.830Z,16.02
2018-07-10T02:03:52.819Z,16.11
2018-07-10T02:04:52.821Z,16.01
2018-07-10T02:05:52.802Z,16.08
2018-07-10T02:06:52.789Z,16.04
2018-07-10T02:07:52.769Z,15.94
2018-07-10T02:08:52.750Z,16.00
2018-07-10T02:09:52.756Z,16.05
2018-07-10T02:10:52.722Z,15.97
2018-07-10T02:11:52.707Z,16.05
2018-07-10T02:12:52.711Z,16.05
2018-07-10T02:13:52.688Z,15.92
2018-07-10T02:14:52.662Z,15.93
2018-07-10T02:15:52.653Z,16.01
2018-07-10T02:16:52.642Z,15.83
2018-07-10T02:17:52.643Z,15.93
2018-07-10T02:18:52.607Z,15.90
2018-07-10T02:19:52.595Z,15.92
2018-07-10T02:20:52.611Z,15.83
2018-07-10T02:21:52.566Z,15.87
2018-07-10T02:22:52.556Z,15.92
2018-07-10T02:23:52.540Z,15.80
2018-07-10T02:24:52.525Z,15.86
2018-07-10T02:25:52.511Z,15.80
2018-07-10T02:26:52.515Z,15.83
2018-07-10T02:27:52.496Z,15.87
2018-07-10T02:28:52.472Z,15.78
2018-07-10T02:29:52.457Z,15.89
2018-07-10T02:30:52.437Z,15.82
2018-07-10T02:31:52.454Z,15.90
2018-07-10T02:32:52.409Z,15.82
2018-07-10T02:33:52.404Z,15.84
2018-07-10T02:34:52.384Z,15.83
2018-07-10T02:35:52.370Z,15.86
2018-07-10T02:36:52.372Z,15.72
2018-07-10T02:38:13.357Z,15.65
2018-07-10T02:38:52.327Z,15.71
2018-07-10T02:39:52.329Z,15.64
2018-07-10T02:40:52.297Z,15.64
2018-07-10T02:41:52.301Z,15.64
2018-07-10T02:42:52.295Z,15.60
2018-07-10T02:43:52.255Z,15.62
2018-07-10T02:44:52.246Z,15.67
2018-07-10T02:45:52.238Z,15.62
2018-07-10T02:46:52.211Z,15.59
2018-07-10T02:47:52.228Z,15.59
2018-07-10T02:48:52.189Z,15.67
2018-07-10T02:49:52.172Z,15.62
2018-07-10T02:50:52.155Z,15.65
2018-07-10T02:51:52.142Z,15.67
2018-07-10T02:52:52.124Z,15.56
2018-07-10T02:53:52.131Z,15.64
2018-07-10T02:54:52.100Z,15.47
2018-07-10T02:55:52.078Z,15.51
2018-07-10T02:56:52.074Z,15.47
2018-07-10T02:57:52.077Z,15.54
2018-07-10T02:58:52.065Z,15.43
2018-07-10T02:59:52.023Z,15.39
2018-07-10T03:00:52.015Z,15.41
2018-07-10T03:01:52.002Z,15.41
2018-07-10T03:02:51.987Z,15.51
2018-07-10T03:03:51.978Z,15.53
2018-07-10T03:04:51.959Z,15.56
2018-07-10T03:05:51.943Z,15.53
2018-07-10T03:06:51.924Z,15.46
2018-07-10T03:07:51.916Z,15.43
2018-07-10T03:08:51.928Z,15.44
2018-07-10T03:09:51.897Z,15.36
2018-07-10T03:10:51.869Z,15.36
2018-07-10T03:11:51.859Z,15.43
2018-07-10T03:12:51.842Z,15.36
2018-07-10T03:13:51.823Z,15.51
2018-07-10T03:14:51.837Z,15.50
2018-07-10T03:15:51.803Z,15.39
2018-07-10T03:16:51.784Z,15.41
2018-07-10T03:17:51.772Z,15.43
2018-07-10T03:18:51.770Z,15.39
2018-07-10T03:19:51.743Z,15.35
2018-07-10T03:20:51.745Z,15.41
2018-07-10T03:21:51.709Z,15.35
2018-07-10T03:22:51.699Z,15.43
2018-07-10T03:23:51.684Z,15.38
2018-07-10T03:24:51.676Z,15.43
2018-07-10T03:25:51.672Z,15.41
2018-07-10T03:26:51.652Z,15.36
2018-07-10T03:27:51.626Z,15.35
2018-07-10T03:28:51.613Z,15.39
2018-07-10T03:29:51.611Z,15.35
2018-07-10T03:30:51.584Z,15.43
2018-07-10T03:31:51.571Z,15.39
2018-07-10T03:32:51.554Z,15.43
2018-07-10T03:33:51.541Z,15.41
2018-07-10T03:34:51.537Z,15.38
2018-07-10T03:35:51.507Z,15.43
2018-07-10T03:36:51.493Z,15.35
2018-07-10T03:37:51.480Z,15.35
2018-07-10T03:38:51.467Z,15.39
2018-07-10T03:39:51.470Z,15.41
2018-07-10T03:40:51.455Z,15.49
2018-07-10T03:41:51.425Z,15.39
2018-07-10T03:42:51.404Z,15.50
2018-07-10T03:43:51.406Z,15.51
2018-07-10T03:44:51.381Z,15.46
2018-07-10T03:45:51.397Z,15.51
2018-07-10T03:46:51.352Z,15.49
2018-07-10T03:47:51.337Z,15.47
2018-07-10T03:48:51.321Z,15.50
2018-07-10T03:49:51.304Z,15.54
2018-07-10T03:50:51.298Z,15.44
2018-07-10T03:51:51.307Z,15.51
2018-07-10T03:52:51.269Z,15.50
2018-07-10T03:53:51.251Z,15.54
2018-07-10T03:54:51.238Z,15.47
2018-07-10T03:55:51.224Z,15.46
2018-07-10T03:56:51.209Z,15.50
2018-07-10T03:57:51.211Z,15.50
2018-07-10T03:58:51.179Z,15.64
2018-07-10T03:59:51.163Z,15.53
2018-07-10T04:00:51.144Z,15.65
2018-07-10T04:01:51.151Z,15.59
2018-07-10T04:02:51.123Z,15.69
2018-07-10T04:03:51.103Z,15.60
2018-07-10T04:04:51.092Z,15.59
2018-07-10T04:05:51.096Z,15.60
2018-07-10T04:06:51.086Z,15.59
2018-07-10T04:07:51.043Z,15.60
2018-07-10T04:08:51.034Z,15.60
2018-07-10T04:09:51.020Z,15.62
2018-07-10T04:10:51.005Z,15.67
2018-07-10T04:11:51.053Z,15.72
2018-07-10T04:12:50.989Z,15.71
2018-07-10T04:13:50.965Z,15.71
2018-07-10T04:14:50.946Z,15.71
2018-07-10T04:15:50.933Z,15.74
2018-07-10T04:16:50.916Z,15.67
2018-07-10T04:17:50.948Z,15.76
2018-07-10T04:18:50.905Z,15.74
2018-07-10T04:19:50.880Z,15.62
2018-07-10T04:20:50.860Z,15.60
2018-07-10T04:21:50.849Z,15.64
2018-07-10T04:22:50.852Z,15.64
2018-07-10T04:23:50.833Z,15.65
2018-07-10T04:24:50.804Z,15.62
2018-07-10T04:25:50.793Z,15.72
2018-07-10T04:26:50.791Z,15.71
2018-07-10T04:27:50.791Z,15.71
2018-07-10T04:28:50.773Z,15.86
2018-07-10T04:29:50.737Z,15.75
2018-07-10T04:30:50.724Z,15.75
2018-07-10T04:31:50.723Z,15.80
2018-07-10T04:32:50.691Z,15.74
2018-07-10T04:33:50.690Z,15.71
2018-07-10T04:34:51.238Z,15.76
2018-07-10T04:35:50.677Z,15.62
2018-07-10T04:36:50.636Z,15.71
2018-07-10T04:37:50.618Z,15.62
2018-07-10T04:38:50.608Z,15.69
2018-07-10T04:39:50.586Z,15.71
2018-07-10T04:40:50.576Z,15.74
2018-07-10T04:41:50.578Z,15.68
2018-07-10T04:42:50.549Z,15.74
2018-07-10T04:43:50.544Z,15.68
2018-07-10T04:44:50.531Z,15.75
2018-07-10T04:45:50.502Z,15.69
2018-07-10T04:46:50.509Z,15.64
2018-07-10T04:47:50.476Z,15.76
2018-07-10T04:48:50.462Z,15.86
2018-07-10T04:49:50.448Z,15.82
2018-07-10T04:50:50.428Z,15.76
2018-07-10T04:51:50.441Z,15.76
2018-07-10T04:52:50.409Z,15.84
2018-07-10T04:53:50.402Z,15.78
2018-07-10T04:54:50.376Z,15.84
2018-07-10T04:55:50.363Z,15.89
2018-07-10T04:56:50.348Z,15.92
2018-07-10T04:57:50.357Z,15.93
2018-07-10T04:58:50.320Z,15.93
2018-07-10T04:59:50.303Z,15.93
2018-07-10T05:00:50.294Z,15.92
2018-07-10T05:01:50.280Z,15.97
2018-07-10T05:02:50.265Z,16.05
2018-07-10T05:03:50.274Z,15.94
2018-07-10T05:04:50.232Z,16.01
2018-07-10T05:05:50.240Z,16.05
2018-07-10T05:06:50.202Z,16.27
2018-07-10T05:07:50.207Z,16.38
2018-07-10T05:08:50.184Z,16.35
2018-07-10T05:09:50.188Z,16.45
2018-07-10T05:10:50.849Z,16.49
2018-07-10T05:11:50.136Z,16.53
2018-07-10T05:12:50.123Z,16.63
2018-07-10T05:13:50.107Z,16.61
2018-07-10T05:14:50.095Z,16.67
2018-07-10T05:15:50.102Z,16.70
2018-07-10T05:16:50.073Z,16.76
2018-07-10T05:17:50.055Z,16.73
2018-07-10T05:18:50.053Z,16.70
2018-07-10T05:19:50.043Z,16.68
2018-07-10T05:20:50.015Z,16.67
2018-07-10T05:21:50.003Z,16.73
2018-07-10T05:22:49.986Z,16.68
2018-07-10T05:23:49.985Z,16.64
2018-07-10T05:24:49.959Z,16.60
2018-07-10T05:25:49.945Z,16.45
2018-07-10T05:26:49.936Z,16.45
2018-07-10T05:27:49.916Z,16.49
2018-07-10T05:28:49.986Z,16.49
2018-07-10T05:29:49.889Z,16.46
2018-07-10T05:30:49.878Z,16.43
2018-07-10T05:31:49.867Z,16.41
2018-07-10T05:32:49.852Z,16.56
2018-07-10T05:33:49.855Z,16.60
2018-07-10T05:34:49.842Z,16.64
2018-07-10T05:35:49.813Z,16.64
2018-07-10T05:36:49.796Z,16.71
2018-07-10T05:37:49.784Z,16.78
2018-07-10T05:38:49.809Z,16.73
2018-07-10T05:39:49.760Z,16.70
2018-07-10T05:40:49.748Z,16.68
2018-07-10T05:41:49.730Z,16.70
2018-07-10T05:42:49.719Z,16.56
2018-07-10T05:43:49.703Z,16.68
2018-07-10T05:44:49.711Z,16.73
2018-07-10T05:45:49.682Z,16.63
2018-07-10T05:46:49.671Z,16.75
2018-07-10T05:47:49.647Z,16.73
2018-07-10T05:48:49.640Z,16.70
2018-07-10T05:49:49.638Z,16.73
2018-07-10T05:50:49.626Z,16.76
2018-07-10T05:51:49.636Z,16.78
2018-07-10T05:52:49.583Z,16.76
2018-07-10T05:53:49.572Z,16.70
2018-07-10T05:54:49.569Z,16.70
2018-07-10T05:55:49.536Z,16.68
2018-07-10T05:56:49.533Z,16.61
2018-07-10T05:57:49.514Z,16.64
2018-07-10T05:58:49.527Z,16.73
2018-07-10T05:59:49.505Z,16.81
2018-07-10T06:00:49.473Z,16.66
2018-07-10T06:01:49.456Z,16.70
2018-07-10T06:02:49.458Z,16.76
2018-07-10T06:03:49.434Z,16.73
2018-07-10T06:04:49.444Z,16.71
2018-07-10T06:05:49.408Z,16.76
2018-07-10T06:06:49.391Z,16.78
2018-07-10T06:07:49.381Z,16.83
2018-07-10T06:08:49.365Z,16.98
2018-07-10T06:09:49.349Z,16.98
2018-07-10T06:10:49.356Z,17.08
2018-07-10T06:11:50.263Z,17.11
2018-07-10T06:12:49.314Z,17.21
2018-07-10T06:13:49.299Z,17.21
2018-07-10T06:14:49.296Z,17.19
2018-07-10T06:15:49.288Z,17.21
2018-07-10T06:16:49.254Z,17.25
2018-07-10T06:17:49.260Z,17.48
2018-07-10T06:18:49.234Z,17.44
2018-07-10T06:19:49.216Z,17.49
2018-07-10T06:20:49.227Z,17.46
2018-07-10T06:21:49.191Z,17.46
2018-07-10T06:22:49.178Z,17.40
2018-07-10T06:23:49.163Z,17.44
2018-07-10T06:24:49.151Z,17.46
2018-07-10T06:25:49.155Z,17.52
2018-07-10T06:26:49.121Z,17.46
2018-07-10T06:27:49.116Z,17.43
2018-07-10T06:28:49.092Z,17.28
2018-07-10T06:29:49.086Z,17.36
2018-07-10T06:30:49.097Z,17.38
2018-07-10T06:31:49.068Z,17.49
2018-07-10T06:32:49.064Z,17.51
2018-07-10T06:33:49.036Z,17.55
2018-07-10T06:34:49.016Z,17.56
2018-07-10T06:35:49.010Z,17.49
2018-07-10T06:36:48.994Z,17.54
2018-07-10T06:37:48.992Z,17.54
2018-07-10T06:38:48.963Z,17.55
2018-07-10T06:39:48.976Z,17.51
2018-07-10T06:40:48.942Z,17.49
2018-07-10T06:41:48.930Z,17.56
2018-07-10T06:42:48.927Z,17.68
2018-07-10T06:43:48.906Z,17.74
2018-07-10T06:44:48.890Z,17.84
2018-07-10T06:45:48.888Z,17.79
2018-07-10T06:46:48.896Z,17.77
2018-07-10T06:47:48.862Z,17.82
2018-07-10T06:48:48.931Z,17.92
2018-07-10T06:49:48.835Z,17.82
2018-07-10T06:50:48.811Z,17.95
2018-07-10T06:51:48.802Z,17.92
2018-07-10T06:52:48.999Z,17.93
2018-07-10T06:53:48.779Z,17.92
2018-07-10T06:54:48.772Z,17.90
2018-07-10T06:55:48.748Z,17.95
2018-07-10T06:56:48.760Z,17.96
2018-07-10T06:57:48.723Z,17.93
2018-07-10T06:58:48.714Z,17.90
2018-07-10T06:59:48.696Z,17.96
2018-07-10T07:00:48.741Z,17.97
2018-07-10T07:01:48.694Z,17.93
2018-07-10T07:02:48.671Z,17.92
2018-07-10T07:03:48.648Z,17.93
2018-07-10T07:04:48.635Z,18.05
2018-07-10T07:05:48.623Z,18.02
2018-07-10T07:06:48.634Z,17.93
2018-07-10T07:07:48.637Z,17.96
2018-07-10T07:08:48.583Z,18.03
2018-07-10T07:09:48.569Z,17.95
2018-07-10T07:10:48.559Z,17.97
2018-07-10T07:11:48.543Z,17.92
2018-07-10T07:12:48.550Z,17.96
2018-07-10T07:13:48.520Z,17.93
2018-07-10T07:14:48.520Z,17.92
2018-07-10T07:15:48.544Z,17.92
2018-07-10T07:16:48.485Z,17.93
2018-07-10T07:17:48.500Z,17.90
2018-07-10T07:18:48.456Z,17.99
2018-07-10T07:19:48.444Z,18.00
2018-07-10T07:20:48.433Z,18.05
2018-07-10T07:21:48.418Z,18.02
2018-07-10T07:22:48.407Z,18.10
2018-07-10T07:23:48.426Z,18.03
2018-07-10T07:24:48.384Z,18.12
2018-07-10T07:25:48.371Z,18.07
2018-07-10T07:26:48.365Z,18.00
2018-07-10T07:27:48.340Z,18.03
2018-07-10T07:28:48.349Z,18.07
2018-07-10T07:29:48.321Z,18.07
2018-07-10T07:30:48.303Z,18.14
2018-07-10T07:31:48.296Z,18.11
2018-07-10T07:32:48.285Z,18.15
2018-07-10T07:33:48.283Z,18.18
2018-07-10T07:34:48.258Z,18.18
2018-07-10T07:35:48.244Z,18.25
2018-07-10T07:36:48.229Z,18.29
2018-07-10T07:37:48.217Z,18.20
2018-07-10T07:38:48.220Z,18.20
2018-07-10T07:39:48.194Z,18.10
2018-07-10T07:40:48.181Z,18.10
2018-07-10T07:41:48.167Z,18.10
2018-07-10T07:42:48.157Z,18.07
2018-07-10T07:43:48.245Z,18.14
2018-07-10T07:44:48.132Z,18.12
2018-07-10T07:45:48.122Z,18.10
2018-07-10T07:46:48.104Z,18.05
2018-07-10T07:47:48.093Z,18.10
2018-07-10T07:48:48.109Z,18.02
2018-07-10T07:49:48.072Z,18.08
2018-07-10T07:50:48.053Z,18.00
2018-07-10T07:51:48.044Z,18.11
2018-07-10T07:52:48.032Z,18.11
2018-07-10T07:53:48.019Z,18.23
2018-07-10T07:54:48.019Z,18.21
2018-07-10T07:55:47.992Z,18.17
2018-07-10T07:56:47.987Z,18.23
2018-07-10T07:57:47.971Z,18.23
2018-07-10T07:58:47.958Z,18.20
2018-07-10T07:59:47.961Z,18.26
2018-07-10T08:00:47.947Z,18.36
2018-07-10T08:01:47.925Z,18.50
2018-07-10T08:02:47.906Z,18.52
2018-07-10T08:03:47.901Z,18.62
2018-07-10T08:04:47.894Z,18.72
2018-07-10T08:05:47.865Z,18.72
2018-07-10T08:06:47.858Z,18.60
2018-07-10T08:07:47.846Z,18.54
2018-07-10T08:08:47.835Z,18.55
2018-07-10T08:09:47.845Z,18.51
2018-07-10T08:10:47.823Z,18.47
2018-07-10T08:11:47.795Z,18.44
2018-07-10T08:12:47.779Z,18.47
2018-07-10T08:13:47.776Z,18.47
2018-07-10T08:14:47.759Z,18.52
2018-07-10T08:15:47.762Z,18.50
2018-07-10T08:16:47.733Z,18.66
2018-07-10T08:17:47.719Z,18.76
2018-07-10T08:18:47.712Z,18.85
2018-07-10T08:19:47.698Z,18.81
2018-07-10T08:20:47.701Z,18.76
2018-07-10T08:21:47.673Z,18.84
2018-07-10T08:22:47.656Z,18.73
2018-07-10T08:23:47.649Z,18.67
2018-07-10T08:24:47.632Z,18.67
2018-07-10T08:25:47.655Z,18.66
2018-07-10T08:26:47.613Z,18.60
2018-07-10T08:27:47.600Z,18.67
2018-07-10T08:28:47.587Z,18.62
2018-07-10T08:29:47.580Z,18.70
2018-07-10T08:30:47.567Z,18.72
2018-07-10T08:31:47.565Z,18.72
2018-07-10T08:32:47.554Z,18.69
2018-07-10T08:33:47.639Z,18.73
2018-07-10T08:34:47.513Z,18.66
2018-07-10T08:35:47.506Z,18.73
2018-07-10T08:36:47.502Z,18.84
2018-07-10T08:37:47.494Z,18.99
2018-07-10T08:38:47.466Z,18.98
2018-07-10T08:39:47.450Z,19.21
2018-07-10T08:40:47.442Z,19.32
2018-07-10T08:41:47.446Z,19.37
2018-07-10T08:42:47.416Z,19.43
2018-07-10T08:43:47.402Z,19.40
2018-07-10T08:44:47.394Z,19.36
2018-07-10T08:45:47.382Z,19.36
2018-07-10T08:46:47.383Z,19.25
2018-07-10T08:47:47.359Z,19.29
2018-07-10T08:48:47.346Z,19.16
2018-07-10T08:49:47.338Z,19.02
2018-07-10T08:50:47.354Z,19.02
2018-07-10T08:51:47.329Z,18.88
2018-07-10T08:52:47.301Z,18.84
2018-07-10T08:53:47.290Z,18.72
2018-07-10T08:54:47.277Z,18.78
2018-07-10T08:55:47.260Z,18.63
2018-07-10T08:56:47.264Z,18.70
2018-07-10T08:57:47.240Z,18.52
2018-07-10T08:58:47.243Z,18.54
2018-07-10T08:59:47.253Z,18.42
2018-07-10T09:00:47.206Z,18.41
2018-07-10T09:01:47.190Z,18.42
2018-07-10T09:02:47.179Z,18.35
2018-07-10T09:03:47.195Z,18.36
2018-07-10T09:04:47.152Z,18.29
2018-07-10T09:05:47.147Z,18.39
2018-07-10T09:06:47.132Z,18.30
2018-07-10T09:07:47.119Z,18.26
2018-07-10T09:08:47.107Z,18.29
2018-07-10T09:09:47.109Z,18.25
2018-07-10T09:10:47.081Z,18.23
2018-07-10T09:11:47.068Z,18.14
2018-07-10T09:12:47.061Z,18.11
2018-07-10T09:13:47.047Z,18.05
2018-07-10T09:14:47.048Z,17.99
2018-07-10T09:15:47.020Z,17.95
2018-07-10T09:16:47.010Z,17.86
2018-07-10T09:17:46.991Z,17.92
2018-07-10T09:18:46.981Z,17.89
2018-07-10T09:19:46.979Z,17.75
2018-07-10T09:20:46.955Z,17.89
2018-07-10T09:21:46.944Z,17.87
2018-07-10T09:22:46.933Z,17.93
2018-07-10T09:23:46.920Z,17.95
2018-07-10T09:24:46.919Z,17.99
2018-07-10T09:25:46.895Z,17.96
2018-07-10T09:26:46.881Z,18.03
2018-07-10T09:27:46.865Z,18.05
2018-07-10T09:28:46.858Z,18.03
2018-07-10T09:29:46.856Z,18.00
2018-07-10T09:30:46.827Z,17.99
2018-07-10T09:31:46.816Z,17.95
2018-07-10T09:32:46.806Z,17.95
2018-07-10T09:33:46.821Z,18.11
2018-07-10T09:34:46.783Z,18.08
2018-07-10T09:35:46.785Z,18.12
2018-07-10T09:36:46.755Z,18.23
2018-07-10T09:37:46.738Z,18.33
2018-07-10T09:38:46.724Z,18.30
2018-07-10T09:39:46.741Z,18.37
2018-07-10T09:40:46.718Z,18.47
2018-07-10T09:41:46.689Z,18.58
2018-07-10T09:42:46.674Z,18.55
2018-07-10T09:43:46.670Z,18.52
2018-07-10T09:44:46.693Z,18.54
2018-07-10T09:45:46.657Z,18.47
2018-07-10T09:46:46.626Z,18.35
2018-07-10T09:47:46.612Z,18.36
2018-07-10T09:48:46.600Z,18.32
2018-07-10T09:49:46.585Z,18.21
2018-07-10T09:50:46.599Z,18.21
2018-07-10T09:51:46.565Z,18.18
2018-07-10T09:52:46.553Z,18.21
2018-07-10T09:53:46.540Z,18.11
2018-07-10T09:54:46.602Z,18.12
2018-07-10T09:55:46.531Z,18.02
2018-07-10T09:56:46.498Z,18.07
2018-07-10T09:57:46.497Z,18.11
2018-07-10T09:58:46.476Z,18.03
2018-07-10T09:59:46.462Z,18.10
2018-07-10T10:00:46.470Z,18.10
2018-07-10T10:01:46.468Z,18.07
2018-07-10T10:02:46.439Z,18.05
2018-07-10T10:03:46.416Z,18.02
2018-07-10T10:04:46.398Z,18.00
2018-07-10T10:05:46.400Z,18.08
2018-07-10T10:06:46.377Z,18.02
2018-07-10T10:07:46.358Z,18.05
2018-07-10T10:08:46.352Z,17.92
2018-07-10T10:09:46.335Z,18.03
2018-07-10T10:10:46.350Z,18.00
2018-07-10T10:11:46.313Z,18.08
2018-07-10T10:12:46.298Z,18.10
2018-07-10T10:13:46.285Z,18.20
2018-07-10T10:14:46.277Z,18.15
2018-07-10T10:15:46.260Z,18.26
2018-07-10T10:16:46.268Z,18.18
2018-07-10T10:17:46.237Z,18.15
2018-07-10T10:18:46.224Z,18.26
2018-07-10T10:19:46.210Z,18.21
2018-07-10T10:20:46.198Z,18.12
2018-07-10T10:21:46.195Z,18.18
2018-07-10T10:22:46.171Z,18.27
2018-07-10T10:23:46.161Z,18.26
2018-07-10T10:24:46.144Z,18.25
2018-07-10T10:25:46.194Z,18.37
2018-07-10T10:26:46.137Z,18.27
2018-07-10T10:27:46.130Z,18.08
2018-07-10T10:28:46.113Z,18.14
2018-07-10T10:29:46.079Z,18.14
2018-07-10T10:30:46.069Z,18.05
2018-07-10T10:31:46.073Z,18.03
2018-07-10T10:32:46.062Z,18.00
2018-07-10T10:33:46.029Z,18.03
2018-07-10T10:34:46.021Z,17.90
2018-07-10T10:35:46.077Z,17.89
2018-07-10T10:36:45.993Z,17.82
2018-07-10T10:37:46.001Z,17.89
2018-07-10T10:38:45.985Z,17.86
2018-07-10T10:39:45.956Z,17.90
2018-07-10T10:40:45.939Z,17.87
2018-07-10T10:41:45.930Z,17.90
2018-07-10T10:42:45.927Z,17.86
2018-07-10T10:43:45.910Z,17.81
2018-07-10T10:44:45.883Z,17.82
2018-07-10T10:45:45.879Z,17.93
2018-07-10T10:46:45.859Z,17.93
2018-07-10T10:47:45.845Z,17.96
2018-07-10T10:48:45.837Z,18.03
2018-07-10T10:49:45.844Z,18.07
2018-07-10T10:50:45.829Z,18.02
2018-07-10T10:51:45.798Z,18.02
2018-07-10T10:52:45.789Z,17.95
2018-07-10T10:53:45.778Z,17.93
2018-07-10T10:54:45.778Z,18.02
2018-07-10T10:55:45.748Z,18.07
2018-07-10T10:56:45.732Z,18.02
2018-07-10T10:57:45.722Z,18.08
2018-07-10T10:58:45.709Z,18.18
2018-07-10T10:59:45.712Z,18.25
2018-07-10T11:00:45.712Z,18.18
2018-07-10T11:01:45.668Z,18.21
2018-07-10T11:02:45.680Z,18.25
2018-07-10T11:03:45.640Z,18.18
2018-07-10T11:04:45.632Z,18.20
2018-07-10T11:05:45.622Z,18.27
2018-07-10T11:07:06.616Z,18.25
2018-07-10T11:07:45.646Z,18.27
2018-07-10T11:08:45.581Z,18.18
2018-07-10T11:09:45.565Z,18.18
2018-07-10T11:10:45.569Z,18.20
2018-07-10T11:11:45.588Z,18.23
2018-07-10T11:12:45.522Z,18.25
2018-07-10T11:13:45.519Z,18.12
2018-07-10T11:14:45.528Z,18.15
2018-07-10T11:15:45.497Z,18.20
2018-07-10T11:16:45.624Z,18.25
2018-07-10T11:17:45.462Z,18.25
2018-07-10T11:18:45.472Z,18.39
2018-07-10T11:19:45.430Z,18.27
2018-07-10T11:20:45.456Z,18.26
2018-07-10T11:21:45.651Z,18.41
2018-07-10T11:22:45.396Z,18.32
2018-07-10T11:23:45.384Z,18.52
2018-07-10T11:24:45.372Z,18.54
2018-07-10T11:25:45.359Z,18.66
2018-07-10T11:26:45.360Z,18.67
2018-07-10T11:27:45.330Z,18.67
2018-07-10T11:28:45.323Z,18.76
2018-07-10T11:29:45.310Z,18.72
2018-07-10T11:30:45.294Z,18.76
2018-07-10T11:32:06.291Z,18.88
2018-07-10T11:32:45.276Z,18.69
2018-07-10T11:33:45.253Z,18.70
2018-07-10T11:34:45.237Z,18.75
2018-07-10T11:35:45.228Z,18.63
2018-07-10T11:36:45.262Z,18.65
2018-07-10T11:37:45.203Z,18.57
2018-07-10T11:38:45.196Z,18.60
2018-07-10T11:39:45.191Z,18.51
2018-07-10T11:40:45.177Z,18.55
2018-07-10T11:41:45.149Z,18.50
2018-07-10T11:42:45.154Z,18.48
2018-07-10T11:43:45.129Z,18.51
2018-07-10T11:44:45.117Z,18.51
2018-07-10T11:45:45.117Z,18.54
2018-07-10T11:46:45.089Z,18.54
2018-07-10T11:47:45.096Z,18.48
2018-07-10T11:48:45.075Z,18.52
2018-07-10T11:49:45.058Z,18.52
2018-07-10T11:50:45.043Z,18.62
2018-07-10T11:51:45.061Z,18.55
2018-07-10T11:52:45.033Z,18.66
2018-07-10T11:53:45.009Z,18.67
2018-07-10T11:54:44.984Z,18.58
2018-07-10T11:55:44.975Z,18.73
2018-07-10T11:56:44.959Z,18.72
2018-07-10T11:57:44.964Z,18.72
2018-07-10T11:58:44.939Z,18.76
2018-07-10T11:59:44.922Z,18.72
2018-07-10T12:00:44.912Z,18.76
2018-07-10T12:01:44.898Z,18.66
2018-07-10T12:02:44.905Z,18.60
2018-07-10T12:03:44.868Z,18.50
2018-07-10T12:04:44.863Z,18.50
2018-07-10T12:05:44.843Z,18.67
2018-07-10T12:06:44.831Z,18.66
2018-07-10T12:07:44.843Z,18.63
2018-07-10T12:08:44.825Z,18.58
2018-07-10T12:09:44.795Z,18.57
2018-07-10T12:10:44.784Z,18.32
2018-07-10T12:11:44.765Z,18.26
2018-07-10T12:12:44.767Z,18.15
2018-07-10T12:13:44.758Z,18.15
2018-07-10T12:14:44.732Z,18.08
2018-07-10T12:15:44.720Z,18.07
2018-07-10T12:16:44.702Z,18.00
2018-07-10T12:17:44.704Z,18.03
2018-07-10T12:18:44.691Z,17.96
2018-07-10T12:19:44.671Z,17.93
2018-07-10T12:20:44.699Z,17.92
2018-07-10T12:21:44.645Z,18.03
2018-07-10T12:22:44.632Z,18.12
2018-07-10T12:23:44.632Z,18.07
2018-07-10T12:24:44.610Z,18.15
2018-07-10T12:25:44.594Z,17.82
2018-07-10T12:26:44.601Z,17.84
2018-07-10T12:27:44.566Z,17.84
2018-07-10T12:28:44.568Z,17.71
2018-07-10T12:29:44.544Z,17.77
2018-07-10T12:30:44.529Z,17.79
2018-07-10T12:31:44.517Z,17.75
2018-07-10T12:32:44.505Z,17.62
2018-07-10T12:33:44.505Z,17.62
2018-07-10T12:34:44.520Z,17.68
2018-07-10T12:35:44.467Z,17.75
2018-07-10T12:36:44.449Z,17.78
2018-07-10T12:37:44.456Z,17.82
2018-07-10T12:38:44.427Z,17.79
2018-07-10T12:39:44.412Z,17.86
2018-07-10T12:40:44.433Z,17.84
2018-07-10T12:41:44.441Z,17.90
2018-07-10T12:42:44.371Z,17.99
2018-07-10T12:43:44.369Z,18.00
2018-07-10T12:44:44.345Z,18.08
2018-07-10T12:45:44.336Z,18.17
2018-07-10T12:46:44.332Z,18.26
2018-07-10T12:47:44.309Z,18.45
2018-07-10T12:48:44.296Z,18.63
2018-07-10T12:49:44.276Z,18.73
2018-07-10T12:50:44.271Z,18.92
2018-07-10T12:51:44.278Z,19.21
2018-07-10T12:52:44.259Z,19.65